Terminal Aerodrome Forecast
Issued by NWS Albany, NY

Home | Current Version | Previous Version | Text Only | Print | Product List | Glossary On
Versions: 1 2 3 4 5 6 7 8 9 10 11 12 13 14 15 16 17 18
000
FTUS41 KALY 271731
TAFALB
TAF
KALB 271731Z 2718/2818 18014G22KT P6SM VCTS BKN035CB
      TEMPO 2721/2722 VRB15G35KT 3SM -TSRA BR BKN015CB OVC035
     FM280100 18010G15KT P6SM VCSH BKN060
     FM280400 18007KT 5SM BR BKN080
     FM281000 18004KT 5SM BR SCT010 OVC035
     FM281400 21013KT P6SM SCT035 OVC080=

USA.gov is the U.S. government's official web portal to all federal, state and local government web resources and services.